CheckWX is a tool to help pilots better visualize weather data.  It is not intended as a substitute for an official pre-flight weather briefing.

22:24:55 UTC

KSDF TAF
Louisville International-Standiford Field Airport
Louisville, Kentucky, USA
KSDF 222119Z 2221/2324 25015G24KT P6SM FEW050 FM222330 25012KT P6SM SKC FM230700 22007KT P6SM SKC FM231600 22012G20KT P6SM FEW060

Oct-22@
21:00 UTC

Oct-22 @ 21:00 UTC

Oct-22@
23:30 UTC

Oct-22 @ 23:30 UTC

KSDF 222119Z 2221/2324 25015G24KT P6SM FEW050
Wind
  • 250° at 15 KTS
  • {Gusting to 24 KTS
Cloud Levels
  • Few at 5,000' AGL

Oct-22@
23:30 UTC

Oct-22 @ 23:30 UTC

Oct-23@
07:00 UTC

Oct-23 @ 07:00 UTC

FM222330 25012KT P6SM SKC

From

From Standard forecast or significant change

Wind
  • 250° at 12 KTS
Cloud Levels
  • Clear skies

Oct-23@
07:00 UTC

Oct-23 @ 07:00 UTC

Oct-23@
16:00 UTC

Oct-23 @ 16:00 UTC

FM230700 22007KT P6SM SKC

From

From Standard forecast or significant change

Wind
  • 220° at 7 KTS
Cloud Levels
  • Clear skies

Oct-23@
16:00 UTC

Oct-23 @ 16:00 UTC

Oct-24@
00:00 UTC

Oct-24 @ 00:00 UTC

FM231600 22012G20KT P6SM FEW060

From

From Standard forecast or significant change

Wind
  • 220° at 12 KTS
  • {Gusting to 20 KTS
Cloud Levels
  • Few at 6,000' AGL